Time;durP1;ratioP1;P1;durP2;ratioP2;P2;SDS_P1;SDS_P2;PMS_P1;PMS_P2;Temp;Humidity;BMP_temperature;BMP_pressure;BME280_temperature;BME280_humidity;BME280_pressure;Samples;Min_cycle;Max_cycle;Signal;HPM_P1;HPM_P2
2024/04/04 00:02:11;;;;;;;24.30;8.70;;;;;;;11.90;42.20;100276.92;123411;1099;104258;-73
2024/04/04 00:04:42;;;;;;;23.83;8.80;;;;;;;11.87;42.18;100284.73;123466;1099;104743;-73
2024/04/04 00:07:14;;;;;;;22.23;9.07;;;;;;;11.87;42.66;100282.09;123513;1099;104290;-73
2024/04/04 00:09:45;;;;;;;20.77;9.00;;;;;;;11.84;42.72;100284.65;123392;1099;104852;-73
2024/04/04 00:12:19;;;;;;;22.60;9.33;;;;;;;11.79;42.60;100289.78;123379;1099;104361;-72
2024/04/04 00:14:51;;;;;;;23.80;8.97;;;;;;;11.74;42.85;100280.89;123121;1099;104329;-72
2024/04/04 00:17:22;;;;;;;21.00;8.10;;;;;;;11.68;42.85;100278.09;123367;1099;104313;-72
2024/04/04 00:19:53;;;;;;;18.90;7.70;;;;;;;11.67;42.80;100284.18;123445;1098;104273;-72
2024/04/04 00:22:25;;;;;;;21.33;7.97;;;;;;;11.65;42.53;100285.89;123369;1098;104293;-71
2024/04/04 00:24:58;;;;;;;20.93;7.43;;;;;;;11.62;42.63;100272.66;123391;1099;104465;-73
2024/04/04 00:27:29;;;;;;;19.15;7.80;;;;;;;11.59;42.76;100277.83;123368;1099;104340;-72
2024/04/04 00:30:00;;;;;;;21.43;8.30;;;;;;;11.57;42.66;100283.05;123421;1099;104357;-74
2024/04/04 00:32:32;;;;;;;20.80;7.50;;;;;;;11.59;42.85;100285.72;123500;1099;104275;-72
2024/04/04 00:35:03;;;;;;;22.17;8.77;;;;;;;11.60;43.24;100282.25;123390;1099;117938;-72
2024/04/04 00:37:34;;;;;;;22.43;8.17;;;;;;;11.58;43.14;100284.84;123468;1099;104528;-71
2024/04/04 00:40:07;;;;;;;22.57;8.43;;;;;;;11.53;43.35;100281.20;123282;1099;104731;-72
2024/04/04 00:42:39;;;;;;;20.47;8.07;;;;;;;11.49;43.27;100282.83;123209;1099;104649;-73
2024/04/04 00:45:10;;;;;;;23.27;8.70;;;;;;;11.46;43.44;100285.36;123447;1099;104728;-73
2024/04/04 00:47:43;;;;;;;21.43;8.33;;;;;;;11.41;43.42;100278.22;123250;1099;104623;-73
2024/04/04 00:50:15;;;;;;;22.87;8.47;;;;;;;11.39;43.43;100293.94;123324;1099;104325;-73
2024/04/04 00:52:47;;;;;;;21.83;7.73;;;;;;;11.34;43.69;100292.89;123240;1099;104360;-73
2024/04/04 00:55:20;;;;;;;23.20;8.37;;;;;;;11.35;43.80;100292.05;123731;1099;111921;-72
2024/04/04 00:57:53;;;;;;;20.10;8.47;;;;;;;11.36;43.86;100287.68;123417;1099;104268;-73
2024/04/04 01:00:25;;;;;;;18.35;7.22;;;;;;;11.36;43.88;100288.59;123373;1099;104265;-72
2024/04/04 01:02:57;;;;;;;20.17;7.83;;;;;;;11.30;44.24;100278.78;123421;1099;104306;-72
2024/04/04 01:05:28;;;;;;;20.40;7.77;;;;;;;11.24;44.18;100288.23;123391;1099;104251;-72
2024/04/04 01:08:00;;;;;;;21.40;7.97;;;;;;;11.18;43.85;100286.30;123371;1099;104302;-73
2024/04/04 01:10:31;;;;;;;22.47;8.30;;;;;;;11.14;43.84;100281.79;123450;1098;104261;-73
2024/04/04 01:13:03;;;;;;;17.57;7.40;;;;;;;11.11;44.18;100277.36;123394;1098;104457;-73
2024/04/04 01:15:34;;;;;;;19.03;7.80;;;;;;;11.11;44.23;100271.19;123362;1099;104395;-72
2024/04/04 01:18:06;;;;;;;22.33;8.03;;;;;;;11.09;44.23;100278.15;123410;1099;104300;-72
2024/04/04 01:20:37;;;;;;;16.37;7.20;;;;;;;11.03;44.37;100276.25;123410;1099;104307;-73
2024/04/04 01:23:09;;;;;;;22.67;7.43;;;;;;;11.04;44.45;100288.51;123402;1099;104338;-73
2024/04/04 01:25:40;;;;;;;20.40;7.87;;;;;;;11.00;44.97;100288.37;123464;1099;104309;-72
2024/04/04 01:28:11;;;;;;;20.57;8.00;;;;;;;10.95;44.79;100282.98;123441;1099;104341;-72
2024/04/04 01:30:43;;;;;;;19.93;7.43;;;;;;;10.91;44.45;100273.25;123465;1099;104306;-73
2024/04/04 01:33:14;;;;;;;17.20;7.30;;;;;;;10.88;45.03;100278.41;123091;1099;104374;-72
2024/04/04 01:35:45;;;;;;;15.87;6.93;;;;;;;10.85;44.84;100283.56;123033;1099;104358;-72
2024/04/04 01:38:17;;;;;;;19.50;7.53;;;;;;;10.79;45.51;100282.50;122994;1099;104334;-72
2024/04/04 01:40:48;;;;;;;16.13;6.83;;;;;;;10.72;45.44;100283.17;123032;1099;104349;-72
2024/04/04 01:43:19;;;;;;;17.43;7.03;;;;;;;10.66;44.96;100275.11;123160;1102;104331;-72
2024/04/04 01:45:51;;;;;;;24.57;7.00;;;;;;;10.63;45.94;100276.72;123082;1100;104287;-72
2024/04/04 01:48:22;;;;;;;17.97;7.27;;;;;;;10.58;45.44;100269.61;123103;1100;104245;-73
2024/04/04 01:50:53;;;;;;;17.90;6.97;;;;;;;10.55;45.37;100272.14;123185;1102;104284;-73
2024/04/04 01:53:25;;;;;;;17.60;6.63;;;;;;;10.51;46.07;100271.98;123089;1102;104376;-73
2024/04/04 01:56:01;;;;;;;19.03;7.43;;;;;;;10.45;45.70;100267.42;123088;1099;105485;-73
2024/04/04 01:58:33;;;;;;;18.20;6.90;;;;;;;10.42;46.27;100262.98;123395;1099;104348;-73
2024/04/04 02:01:04;;;;;;;18.47;6.80;;;;;;;10.43;46.02;100263.87;123428;1099;104329;-73
2024/04/04 02:03:35;;;;;;;15.60;7.15;;;;;;;10.42;46.67;100262.98;123428;1099;104265;-72
2024/04/04 02:06:07;;;;;;;18.00;6.67;;;;;;;10.47;46.02;100265.76;123132;1099;104284;-74
2024/04/04 02:08:38;;;;;;;18.35;7.00;;;;;;;10.51;46.19;100266.73;123137;1099;104347;-73
2024/04/04 02:11:10;;;;;;;15.87;6.67;;;;;;;10.52;46.81;100265.91;123088;1099;104242;-73
2024/04/04 02:13:41;;;;;;;17.70;7.30;;;;;;;10.54;46.91;100261.59;123170;1099;104360;-73
2024/04/04 02:16:12;;;;;;;18.80;6.80;;;;;;;10.55;46.57;100260.73;123391;1099;104428;-73
2024/04/04 02:18:44;;;;;;;17.70;7.13;;;;;;;10.58;46.48;100259.11;123403;1099;104641;-73
2024/04/04 02:21:15;;;;;;;18.70;6.67;;;;;;;10.59;46.81;100259.99;123393;1099;104341;-73
2024/04/04 02:23:47;;;;;;;21.03;6.90;;;;;;;10.61;46.55;100247.80;123413;1099;104328;-73
2024/04/04 02:26:18;;;;;;;15.80;6.60;;;;;;;10.62;46.54;100252.22;123236;1099;104345;-73
2024/04/04 02:28:49;;;;;;;18.13;6.50;;;;;;;10.59;46.58;100255.62;123450;1099;104371;-74
2024/04/04 02:31:20;;;;;;;20.23;6.70;;;;;;;10.59;46.77;100249.50;123344;1098;104347;-72
2024/04/04 02:33:52;;;;;;;19.23;6.70;;;;;;;10.60;47.04;100246.92;123404;1099;104319;-73
2024/04/04 02:36:28;;;;;;;18.00;6.87;;;;;;;10.63;46.91;100245.23;123364;1099;104275;-73
2024/04/04 02:38:59;;;;;;;20.27;7.40;;;;;;;10.63;46.89;100247.85;123409;1099;104238;-73
2024/04/04 02:41:31;;;;;;;20.13;6.23;;;;;;;10.63;47.49;100251.39;123438;1099;104271;-73
2024/04/04 02:44:02;;;;;;;17.20;6.27;;;;;;;10.65;47.51;100247.07;123630;1099;104424;-73
2024/04/04 02:46:33;;;;;;;24.47;7.10;;;;;;;10.68;47.12;100243.66;123420;1098;104348;-73
2024/04/04 02:49:05;;;;;;;19.00;6.53;;;;;;;10.69;47.44;100241.09;123419;1099;104705;-73
2024/04/04 02:51:36;;;;;;;19.00;6.33;;;;;;;10.69;47.70;100245.42;123162;1099;104332;-73
2024/04/04 02:54:07;;;;;;;18.13;6.97;;;;;;;10.68;47.48;100241.92;123419;1099;104438;-73
2024/04/04 02:56:40;;;;;;;17.50;6.70;;;;;;;10.68;47.32;100252.41;123108;1099;104335;-73
2024/04/04 02:59:11;;;;;;;24.23;7.17;;;;;;;10.66;47.46;100250.57;123152;1099;104622;-73
2024/04/04 03:01:43;;;;;;;22.20;6.37;;;;;;;10.61;47.31;100250.42;123160;1099;104303;-73
2024/04/04 03:04:15;;;;;;;17.57;6.40;;;;;;;10.58;47.62;100250.33;123405;1099;104274;-73
2024/04/04 03:06:46;;;;;;;20.50;6.33;;;;;;;10.57;47.45;100256.44;123483;1099;104686;-73
2024/04/04 03:09:17;;;;;;;18.23;6.10;;;;;;;10.56;47.32;100257.27;123447;1098;104406;-72
2024/04/04 03:11:49;;;;;;;18.77;6.67;;;;;;;10.53;47.58;100263.34;123162;1099;104352;-72
2024/04/04 03:14:20;;;;;;;20.23;7.43;;;;;;;10.52;47.63;100274.66;123523;1099;104322;-72
2024/04/04 03:16:51;;;;;;;20.20;7.47;;;;;;;10.53;48.35;100267.67;123471;1099;104297;-72
2024/04/04 03:19:23;;;;;;;22.93;8.50;;;;;;;10.50;47.96;100272.81;123428;1099;104334;-74
2024/04/04 03:21:55;;;;;;;23.50;9.00;;;;;;;10.49;48.15;100260.56;123404;1099;104399;-72
2024/04/04 03:24:26;;;;;;;22.23;8.10;;;;;;;10.50;48.29;100267.57;123131;1099;104345;-74
2024/04/04 03:26:57;;;;;;;27.30;8.07;;;;;;;10.45;48.60;100266.54;123147;1099;104354;-72
2024/04/04 03:29:29;;;;;;;23.97;8.20;;;;;;;10.39;48.93;100264.59;123426;1099;104296;-72
2024/04/04 03:32:00;;;;;;;20.77;8.27;;;;;;;10.38;48.38;100266.34;123385;1099;104393;-73
2024/04/04 03:34:31;;;;;;;20.00;8.33;;;;;;;10.42;49.06;100268.23;123427;1098;104376;-72
2024/04/04 03:37:03;;;;;;;20.10;7.47;;;;;;;10.46;48.84;100260.47;123450;1098;104239;-72
2024/04/04 03:39:35;;;;;;;20.60;8.20;;;;;;;10.48;48.50;100258.77;123410;1098;104325;-71
2024/04/04 03:42:06;;;;;;;23.10;8.47;;;;;;;10.49;48.61;100258.82;123466;1099;104347;-72
2024/04/04 03:44:38;;;;;;;22.63;8.57;;;;;;;10.52;48.70;100265.91;123316;1099;104343;-72
2024/04/04 03:47:09;;;;;;;23.03;8.23;;;;;;;10.52;49.11;100260.66;123267;1099;104684;-72
2024/04/04 03:49:41;;;;;;;31.57;9.30;;;;;;;10.54;48.80;100261.59;123404;1099;104303;-72
2024/04/04 03:52:13;;;;;;;33.13;9.73;;;;;;;10.56;49.11;100262.52;123225;1099;104271;-72
2024/04/04 03:54:45;;;;;;;26.83;8.47;;;;;;;10.56;49.52;100273.89;123492;1099;104257;-72
2024/04/04 03:57:16;;;;;;;28.30;8.60;;;;;;;10.60;49.13;100272.28;123381;1099;104838;-72
2024/04/04 03:59:48;;;;;;;26.10;10.07;;;;;;;10.62;49.14;100275.84;123470;1099;104425;-74
2024/04/04 04:02:20;;;;;;;28.83;10.13;;;;;;;10.63;49.73;100276.72;123473;1099;104753;-73
2024/04/04 04:04:52;;;;;;;26.47;9.90;;;;;;;10.62;49.35;100281.08;123447;1099;104357;-73
2024/04/04 04:07:23;;;;;;;27.67;9.40;;;;;;;10.62;49.72;100281.08;123371;1099;104351;-73
2024/04/04 04:09:55;;;;;;;20.07;8.97;;;;;;;10.59;49.41;100281.86;123610;1099;104270;-73
2024/04/04 04:12:26;;;;;;;20.13;8.07;;;;;;;10.54;49.87;100278.21;123573;1099;104444;-73
2024/04/04 04:14:59;;;;;;;21.30;8.40;;;;;;;10.50;50.01;100280.69;123629;1099;104274;-73
2024/04/04 04:17:31;;;;;;;22.73;8.47;;;;;;;10.50;49.77;100281.59;123623;1099;104354;-72
2024/04/04 04:21:17;;;;;;;32.47;8.63;;;;;;;10.54;49.38;100286.08;123560;1098;104334;-73
2024/04/04 04:22:54;;;;;;;22.63;9.10;;;;;;;10.59;49.66;100287.11;123444;1099;104310;-73
2024/04/04 04:25:25;;;;;;;27.20;9.20;;;;;;;10.66;50.32;100290.84;123494;1099;104629;-74
2024/04/04 04:27:57;;;;;;;27.67;10.10;;;;;;;10.70;49.70;100295.33;123337;1099;104247;-73
2024/04/04 04:30:28;;;;;;;29.13;9.33;;;;;;;10.73;49.97;100287.55;123637;1099;104650;-72
2024/04/04 04:33:01;;;;;;;24.75;9.50;;;;;;;10.80;49.88;100286.04;123230;1099;104501;-74
2024/04/04 04:35:32;;;;;;;27.57;9.33;;;;;;;10.83;50.30;100291.38;123507;1099;104299;-72
2024/04/04 04:38:04;;;;;;;24.27;9.27;;;;;;;10.87;49.69;100292.36;123659;1099;104852;-71
2024/04/04 04:40:35;;;;;;;28.63;9.47;;;;;;;10.86;50.26;100293.19;123453;1099;104371;-72
2024/04/04 04:43:06;;;;;;;24.43;9.57;;;;;;;10.88;50.41;100288.91;123619;1099;104253;-72
2024/04/04 04:45:38;;;;;;;26.60;9.77;;;;;;;10.90;50.18;100285.46;123540;1099;104290;-73
2024/04/04 04:48:10;;;;;;;24.57;9.70;;;;;;;10.96;50.05;100290.90;123452;1099;104482;-72
2024/04/04 04:50:41;;;;;;;25.80;9.97;;;;;;;11.00;49.76;100283.12;123573;1099;104438;-72
2024/04/04 04:53:13;;;;;;;28.23;9.70;;;;;;;11.04;49.82;100285.88;123907;1099;104727;-72
2024/04/04 04:55:47;;;;;;;21.77;10.00;;;;;;;11.12;50.65;100288.74;124187;1099;104255;-72
2024/04/04 04:58:20;;;;;;;25.53;11.07;;;;;;;11.19;50.69;100281.93;124037;1099;104255;-73
2024/04/04 05:00:52;;;;;;;23.80;9.50;;;;;;;11.28;50.41;100283.11;123650;1099;104258;-72
2024/04/04 05:03:30;;;;;;;24.60;9.10;;;;;;;11.38;50.34;100279.01;124325;1099;104275;-72
2024/04/04 05:06:06;;;;;;;22.57;9.80;;;;;;;11.50;50.42;100270.60;123930;1099;104228;-73
2024/04/04 05:08:38;;;;;;;25.20;9.47;;;;;;;11.56;50.70;100277.75;123772;1099;104242;-73
2024/04/04 05:11:09;;;;;;;24.33;9.27;;;;;;;11.58;50.58;100270.81;124117;1099;104303;-73
2024/04/04 05:13:41;;;;;;;26.70;8.70;;;;;;;11.51;50.06;100259.22;124111;1099;104308;-74
2024/04/04 05:16:12;;;;;;;23.67;8.93;;;;;;;11.62;50.43;100277.92;123558;1099;104402;-73
2024/04/04 05:18:43;;;;;;;26.33;8.70;;;;;;;11.64;50.62;100279.75;123726;1099;104223;-73
2024/04/04 05:21:15;;;;;;;25.07;8.77;;;;;;;11.68;50.78;100280.72;123793;1099;104229;-73
2024/04/04 05:23:46;;;;;;;28.23;9.17;;;;;;;11.75;50.76;100276.51;124295;1099;104268;-76
2024/04/04 05:26:18;;;;;;;23.07;8.97;;;;;;;11.84;50.53;100282.02;124137;1099;104360;-75
2024/04/04 05:28:52;;;;;;;25.97;8.50;;;;;;;11.93;50.97;100284.93;124414;1099;104348;-73
2024/04/04 05:31:24;;;;;;;28.40;9.20;;;;;;;12.02;50.66;100285.17;124845;1099;104325;-73
2024/04/04 05:33:57;;;;;;;24.70;8.13;;;;;;;12.09;50.85;100290.59;124068;1099;104277;-73
2024/04/04 05:36:28;;;;;;;21.73;9.27;;;;;;;12.18;50.58;100278.56;124481;1099;104553;-73
2024/04/04 05:38:59;;;;;;;27.80;8.17;;;;;;;12.25;50.66;100289.24;124491;1099;104241;-77
2024/04/04 05:41:31;;;;;;;25.30;8.77;;;;;;;12.29;50.39;100291.99;124818;1099;102969;-76
2024/04/04 05:44:04;;;;;;;24.63;8.60;;;;;;;12.34;50.36;100289.48;124368;1098;104342;-74
2024/04/04 05:46:35;;;;;;;29.63;9.10;;;;;;;12.45;50.86;100297.64;124320;1098;104268;-75
2024/04/04 05:49:08;;;;;;;22.77;8.17;;;;;;;12.51;50.34;100288.18;124205;1099;104383;-74
2024/04/04 05:51:42;;;;;;;24.70;8.53;;;;;;;12.58;50.34;100286.58;124223;1099;104265;-74
2024/04/04 05:54:15;;;;;;;22.13;8.03;;;;;;;12.65;50.30;100296.38;124464;1098;104249;-76
2024/04/04 05:56:47;;;;;;;20.52;8.13;;;;;;;12.73;50.16;100296.56;124445;1099;104699;-73
2024/04/04 05:59:20;;;;;;;28.53;8.37;;;;;;;12.80;50.14;100295.86;124722;1099;104853;-77
2024/04/04 06:01:54;;;;;;;32.33;8.90;;;;;;;12.90;50.34;100292.60;124582;1099;104217;-74
2024/04/04 06:04:26;;;;;;;25.43;9.10;;;;;;;13.01;50.51;100298.12;124570;1099;104372;-73
2024/04/04 06:06:57;;;;;;;27.73;9.07;;;;;;;13.10;50.10;100294.78;124020;1099;104540;-74
2024/04/04 06:09:29;;;;;;;33.40;9.33;;;;;;;13.20;50.29;100301.13;124910;1099;104316;-77
2024/04/04 06:12:00;;;;;;;22.83;9.00;;;;;;;13.28;50.15;100305.72;124526;1099;104207;-73
2024/04/04 06:14:38;;;;;;;25.30;9.07;;;;;;;13.41;50.09;100311.28;124156;1099;104322;-74
2024/04/04 06:17:09;;;;;;;24.63;8.90;;;;;;;13.52;49.93;100304.48;123821;1102;104326;-74
2024/04/04 06:19:43;;;;;;;25.10;9.20;;;;;;;13.61;49.81;100311.70;124354;1099;104173;-72
2024/04/04 06:22:16;;;;;;;26.02;9.00;;;;;;;13.71;49.86;100304.86;124484;1099;104242;-73
2024/04/04 06:24:48;;;;;;;24.60;9.77;;;;;;;13.81;50.06;100302.44;124467;1099;104255;-73
2024/04/04 06:27:20;;;;;;;24.50;9.10;;;;;;;13.95;50.05;100304.45;124342;1099;104264;-74
2024/04/04 06:29:56;;;;;;;25.20;8.87;;;;;;;14.10;49.77;100309.11;124164;1099;104214;-73
2024/04/04 06:32:27;;;;;;;24.83;9.23;;;;;;;14.21;49.72;100312.86;123931;1099;104251;-74
2024/04/04 06:34:59;;;;;;;27.00;9.43;;;;;;;14.31;49.95;100305.98;123982;1099;104306;-75
2024/04/04 06:37:32;;;;;;;24.13;9.57;;;;;;;14.45;50.05;100311.50;123975;1099;104252;-75
2024/04/04 06:40:08;;;;;;;30.97;10.53;;;;;;;14.58;49.10;100313.46;124000;1099;104229;-73
2024/04/04 06:42:41;;;;;;;25.25;9.50;;;;;;;14.72;49.07;100311.98;125756;1098;101996;-73
2024/04/04 06:45:12;;;;;;;32.43;9.97;;;;;;;14.82;49.75;100309.45;124342;1099;102109;-75
2024/04/04 06:47:58;;;;;;;29.02;10.05;;;;;;;14.92;49.70;100314.91;124598;1099;104245;-73
2024/04/04 06:50:30;;;;;;;29.83;10.40;;;;;;;15.01;49.70;100314.16;126779;1099;101612;-73
2024/04/04 06:53:04;;;;;;;27.87;9.67;;;;;;;15.09;49.17;100312.52;126722;1098;102609;-73
2024/04/04 06:55:36;;;;;;;26.13;9.67;;;;;;;15.25;48.70;100318.02;126708;1098;102108;-73
2024/04/04 06:58:08;;;;;;;31.37;9.70;;;;;;;15.37;48.48;100323.47;124218;1100;104341;-73
2024/04/04 07:00:41;;;;;;;31.27;9.97;;;;;;;15.42;48.44;100319.13;124296;1099;104367;-74
2024/04/04 07:03:13;;;;;;;25.07;9.37;;;;;;;15.46;49.09;100312.14;124642;1099;104197;-73
2024/04/04 07:05:44;;;;;;;26.43;9.33;;;;;;;15.46;48.50;100318.30;124481;1099;104344;-73
2024/04/04 07:08:16;;;;;;;25.87;8.50;;;;;;;15.44;48.60;100319.14;124482;1099;104165;-73
2024/04/04 07:10:48;;;;;;;27.77;9.00;;;;;;;15.44;47.45;100316.50;124469;1099;104162;-72
2024/04/04 07:13:21;;;;;;;31.57;10.77;;;;;;;15.51;47.60;100320.13;124344;1099;102903;-73
2024/04/04 07:16:16;;;;;;;25.80;10.17;;;;;;;15.63;48.52;100315.88;124040;1099;104287;-74
2024/04/04 07:18:56;;;;;;;29.10;8.30;;;;;;;15.79;47.47;100308.16;126194;1099;102537;-73
2024/04/04 07:21:30;;;;;;;18.63;5.33;;;;;;;15.90;47.79;100308.27;126128;1097;102850;-73
2024/04/04 07:24:01;;;;;;;12.93;4.73;;;;;;;15.97;46.58;100307.45;126762;1099;101985;-72
2024/04/04 07:26:33;;;;;;;14.83;4.60;;;;;;;16.01;46.23;100308.39;126034;1098;104243;-74
2024/04/04 07:29:05;;;;;;;9.23;3.53;;;;;;;16.09;45.60;100307.58;124017;1099;104329;-71
2024/04/04 07:31:43;;;;;;;10.63;3.50;;;;;;;16.15;45.96;100304.98;124481;1099;105298;-76
2024/04/04 07:34:16;;;;;;;9.90;4.03;;;;;;;16.22;45.38;100300.67;124627;1099;104214;-76
2024/04/04 07:36:56;;;;;;;9.73;3.70;;;;;;;16.28;45.57;100303.38;124104;1100;104182;-73
2024/04/04 07:39:31;;;;;;;11.07;3.87;;;;;;;16.38;44.89;100306.98;124468;1099;104242;-73
2024/04/04 07:42:19;;;;;;;11.20;4.00;;;;;;;16.45;44.29;100308.79;126951;1098;101828;-73
2024/04/04 07:44:55;;;;;;;15.00;4.40;;;;;;;16.52;44.79;100312.40;126794;1099;102520;-72
2024/04/04 07:47:32;;;;;;;15.37;4.73;;;;;;;16.63;44.67;100308.06;124436;1099;104194;-73
2024/04/04 07:50:07;;;;;;;21.53;5.50;;;;;;;16.79;44.35;100306.41;124227;1099;104375;-72
2024/04/04 07:52:42;;;;;;;19.87;5.50;;;;;;;16.96;43.82;100310.98;124525;1098;104347;-72
2024/04/04 07:55:27;;;;;;;14.50;4.90;;;;;;;17.11;43.77;100308.44;124477;1099;104376;-73
2024/04/04 07:57:58;;;;;;;18.97;4.90;;;;;;;17.29;43.65;100310.28;124012;1099;104165;-74
2024/04/04 08:00:31;;;;;;;16.30;4.97;;;;;;;17.46;43.59;100313.02;124162;1099;104306;-72
2024/04/04 08:03:08;;;;;;;15.63;4.87;;;;;;;17.66;43.96;100305.15;124243;1099;104326;-74
2024/04/04 08:05:45;;;;;;;15.93;5.13;;;;;;;17.81;43.04;100308.72;124701;1101;104664;-74
2024/04/04 08:08:19;;;;;;;18.97;5.00;;;;;;;17.92;42.48;100315.88;123989;1100;104281;-73
2024/04/04 08:10:52;;;;;;;14.05;5.80;;;;;;;18.03;42.23;100315.00;124273;1099;104242;-72
2024/04/04 08:13:23;;;;;;;19.30;5.35;;;;;;;18.12;42.57;100313.27;124147;1099;104319;-71
2024/04/04 08:16:02;;;;;;;13.27;4.87;;;;;;;18.30;42.36;100300.90;124424;1099;104395;-73
2024/04/04 08:18:36;;;;;;;24.33;8.40;;;;;;;18.45;41.86;100305.31;124193;1099;104261;-71
2024/04/04 08:21:08;;;;;;;26.97;12.00;;;;;;;18.56;41.90;100295.59;124116;1099;104302;-72
2024/04/04 08:23:44;;;;;;;27.40;13.77;;;;;;;18.74;41.61;100301.78;123990;1099;104444;-72
2024/04/04 08:26:22;;;;;;;24.17;8.33;;;;;;;18.88;41.19;100296.48;123957;1102;104270;-71
2024/04/04 08:28:54;;;;;;;18.87;6.60;;;;;;;19.02;41.04;100294.67;123883;1099;104267;-71
2024/04/04 08:31:25;;;;;;;17.73;6.33;;;;;;;19.16;41.08;100299.96;124108;1099;105057;-72
2024/04/04 08:33:59;;;;;;;18.67;5.70;;;;;;;19.25;40.70;100288.42;124063;1099;104175;-71
2024/04/04 08:36:31;;;;;;;19.87;5.60;;;;;;;19.36;40.52;100297.24;124025;1099;104659;-70
2024/04/04 08:39:08;;;;;;;18.57;5.40;;;;;;;19.40;40.75;100288.37;124070;1099;102952;-70
2024/04/04 08:41:43;;;;;;;11.67;4.13;;;;;;;19.43;40.34;100290.11;124545;1099;104705;-70
2024/04/04 08:44:18;;;;;;;10.17;4.10;;;;;;;19.48;39.65;100291.00;124246;1098;104188;-72
2024/04/04 08:46:53;;;;;;;12.03;4.00;;;;;;;19.54;39.12;100289.19;124223;1099;104175;-70
2024/04/04 08:49:28;;;;;;;8.00;3.70;;;;;;;19.60;39.04;100290.04;124212;1099;104175;-70
2024/04/04 08:52:01;;;;;;;12.53;3.67;;;;;;;19.65;38.77;100291.80;124275;1099;104273;-71
2024/04/04 08:54:33;;;;;;;9.53;3.60;;;;;;;19.69;38.78;100290.00;126028;1099;101988;-71
2024/04/04 08:57:06;;;;;;;14.93;4.13;;;;;;;19.83;38.90;100295.28;124327;1099;104248;-70
2024/04/04 08:59:39;;;;;;;9.23;3.43;;;;;;;20.00;38.42;100295.19;124543;1099;104284;-71
2024/04/04 09:02:14;;;;;;;12.83;3.80;;;;;;;20.05;38.62;100291.58;124820;1099;104258;-72
2024/04/04 09:04:45;;;;;;;15.20;3.70;;;;;;;20.13;38.72;100282.67;124691;1099;103787;-71
2024/04/04 09:07:17;;;;;;;12.40;3.80;;;;;;;20.18;38.41;100278.18;124558;1099;104339;-70
2024/04/04 09:09:49;;;;;;;14.00;4.00;;;;;;;20.25;37.97;100287.91;124367;1099;104209;-72
2024/04/04 09:12:22;;;;;;;13.30;4.33;;;;;;;20.38;37.70;100281.60;124291;1099;104174;-74
2024/04/04 09:15:00;;;;;;;9.25;3.25;;;;;;;20.48;37.99;100277.94;124751;1099;104201;-71
2024/04/04 09:17:35;;;;;;;7.17;3.23;;;;;;;20.66;37.85;100273.38;124440;1099;104236;-72
2024/04/04 09:20:10;;;;;;;11.33;3.73;;;;;;;20.81;37.26;100275.02;124502;1099;104395;-74
2024/04/04 09:22:43;;;;;;;10.55;2.90;;;;;;;20.86;37.27;100272.30;124618;1099;104271;-71
2024/04/04 09:25:17;;;;;;;7.33;3.10;;;;;;;20.90;37.43;100276.72;124178;1099;104270;-71
2024/04/04 09:27:49;;;;;;;;;;;;;;;20.95;35.90;100266.88;124252;1099;104660;-71
2024/04/04 09:30:24;;;;;;;11.53;3.70;;;;;;;21.06;36.97;100272.10;123932;1099;104286;-72
2024/04/04 09:32:57;;;;;;;7.77;3.37;;;;;;;21.15;36.02;100269.33;124217;1099;104373;-72
2024/04/04 09:35:32;;;;;;;6.67;3.10;;;;;;;21.20;36.30;100270.15;124568;1099;104239;-72
2024/04/04 09:38:05;;;;;;;10.20;3.27;;;;;;;21.23;36.64;100269.24;124490;1099;105079;-72
2024/04/04 09:40:50;;;;;;;7.77;3.40;;;;;;;21.26;36.05;100269.20;123975;1099;106135;-73
2024/04/04 09:43:26;;;;;;;6.07;2.70;;;;;;;21.41;35.63;100270.78;124446;1099;104268;-71
2024/04/04 09:45:59;;;;;;;10.60;3.20;;;;;;;21.43;35.22;100263.66;124365;1099;108324;-71
2024/04/04 09:48:30;;;;;;;8.60;3.27;;;;;;;21.67;36.19;100271.36;124169;1099;104166;-72
2024/04/04 09:51:03;;;;;;;12.07;3.60;;;;;;;21.77;35.17;100256.11;124271;1099;104347;-72
2024/04/04 09:53:37;;;;;;;6.90;2.77;;;;;;;21.88;35.55;100248.81;126757;1099;101851;-72
2024/04/04 09:56:09;;;;;;;4.73;2.60;;;;;;;21.98;35.51;100254.02;126846;1098;102365;-72
2024/04/04 09:58:43;;;;;;;2.70;2.00;;;;;;;21.96;35.44;100251.38;126742;1098;102125;-73
2024/04/04 10:01:29;;;;;;;9.87;3.27;;;;;;;21.96;34.74;100245.16;126775;1099;102540;-72
2024/04/04 10:04:02;;;;;;;7.73;2.60;;;;;;;22.00;34.70;100246.86;126759;1099;102048;-72
2024/04/04 10:06:41;;;;;;;5.35;2.30;;;;;;;22.02;34.33;100245.06;126647;1099;102599;-72
2024/04/04 10:09:21;;;;;;;5.10;2.17;;;;;;;22.05;34.68;100245.02;126643;1099;102068;-72
2024/04/04 10:11:53;;;;;;;3.33;1.97;;;;;;;22.18;33.92;100235.88;126705;1098;102637;-74
2024/04/04 10:14:33;;;;;;;5.20;2.20;;;;;;;22.25;33.50;100240.23;126311;1099;101966;-72
2024/04/04 10:17:23;;;;;;;6.87;2.27;;;;;;;22.24;33.15;100246.47;126225;1098;101871;-72
2024/04/04 10:19:57;;;;;;;3.45;1.95;;;;;;;22.15;33.21;100246.62;124938;1098;102457;-70
2024/04/04 10:22:33;;;;;;;6.40;2.30;;;;;;;22.05;33.74;100245.89;124539;1099;104316;-71
2024/04/04 10:25:05;;;;;;;5.93;2.10;;;;;;;21.99;33.13;100235.30;124156;1099;104415;-71
2024/04/04 10:27:40;;;;;;;6.83;2.40;;;;;;;21.84;33.17;100240.87;124131;1099;104270;-72
2024/04/04 10:30:14;;;;;;;6.63;2.60;;;;;;;21.72;32.61;100250.84;124401;1099;104328;-73
2024/04/04 10:32:46;;;;;;;5.72;2.55;;;;;;;21.48;32.78;100248.47;124839;1099;101951;-72
2024/04/04 10:35:18;;;;;;;7.67;2.77;;;;;;;21.31;32.75;100248.67;124874;1099;104117;-72
2024/04/04 10:37:49;;;;;;;6.50;2.30;;;;;;;21.28;32.55;100246.05;124731;1099;104204;-71
2024/04/04 10:40:29;;;;;;;5.20;2.37;;;;;;;21.40;32.19;100247.69;124828;1098;104217;-71
2024/04/04 10:43:00;;;;;;;6.23;2.50;;;;;;;21.51;32.41;100243.12;124622;1099;104235;-71
2024/04/04 10:45:33;;;;;;;5.00;2.30;;;;;;;21.69;32.53;100255.31;124672;1099;103005;-74
2024/04/04 10:48:05;;;;;;;5.30;2.10;;;;;;;21.78;32.12;100241.83;124485;1099;103464;-71
2024/04/04 10:50:38;;;;;;;12.13;2.63;;;;;;;21.95;32.08;100238.05;124568;1099;104367;-73
2024/04/04 10:53:11;;;;;;;7.13;2.70;;;;;;;22.02;31.93;100242.39;124718;1099;104201;-73
2024/04/04 10:55:45;;;;;;;3.37;2.00;;;;;;;22.00;32.15;100241.52;124373;1099;104149;-73
2024/04/04 10:58:16;;;;;;;9.18;2.40;;;;;;;22.01;32.46;100229.94;124063;1099;102858;-73
2024/04/04 11:00:56;;;;;;;8.73;3.50;;;;;;;22.13;32.56;100236.85;123938;1102;104808;-74
2024/04/04 11:03:30;;;;;;;10.23;2.60;;;;;;;22.33;31.68;100234.80;123967;1099;104203;-73
2024/04/04 11:06:09;;;;;;;7.60;2.52;;;;;;;22.42;32.00;100228.38;123938;1099;104099;-73
2024/04/04 11:08:46;;;;;;;6.80;2.20;;;;;;;22.48;31.46;100238.10;123923;1099;104213;-70
2024/04/04 11:11:21;;;;;;;5.03;2.00;;;;;;;22.42;31.43;100231.96;123775;1099;104242;-75
2024/04/04 11:13:57;;;;;;;5.43;2.00;;;;;;;22.42;31.30;100228.38;123889;1099;104271;-72
2024/04/04 11:16:41;;;;;;;4.73;2.60;;;;;;;22.30;31.29;100226.83;123790;1099;104272;-71
2024/04/04 11:19:15;;;;;;;6.70;2.23;;;;;;;22.13;31.18;100234.18;123687;1099;104242;-73
2024/04/04 11:21:49;;;;;;;7.45;2.58;;;;;;;22.04;32.01;100241.45;126256;1099;102007;-75
2024/04/04 11:24:28;;;;;;;6.67;2.00;;;;;;;21.97;31.63;100239.80;124725;1098;104290;-73
2024/04/04 11:27:24;;;;;;;7.60;2.50;;;;;;;21.94;31.22;100234.50;126286;1099;104641;-73
2024/04/04 11:30:01;;;;;;;5.43;2.23;;;;;;;21.93;32.00;100239.86;124113;1099;104245;-71